Armadale, United Kingdom
Current Conditions -  °F | °C
As of 7:50 PM on Tuesday 21 Oct 2014 (Local Time) from EGPH Reporting Station
Clear Clear  
Wind Chill: 37°   Ceiling: Unl
Heat Index: 43°   Visibility: 6mi
Dew Point: 34°   Wind: 12mph
Humidity: 70%   Direction: 250°WSW
Pressure: 29.85"   Gusts: NA
Location:  55.88°N, 3.7°W
Report Text: EGPH 211850Z 25010KT CAVOK 06/01 Q1011
Loading
Personal Weather Stations






























Interactive Weather Map
Tropical Storm Tracking
New forecast layout! Learn more

10-Day Weather Forecast

Advertisements
Track Severe Weather on mobile